Carnival Victory — 3FFL8 — position and weather

sailwx.info

Track history (hours):
 
Tides and Currents Weather Stations Pressure Air Temp Water Temp Dewpoint Dewpoint Depression Visibility Wind Speed Wind Dir Waves Ship Positions

Carnival Victory

Operator: Carnival Cruise Lines

Last reported at 2019-May-18 23:00 UTC. Time now 2019-May-20 04:57 UTC.
Position N 25°48' W 075°54'.

Type: Passenger vessel. MMSI: 355263000.

Wind from 090 at 15 knots

Barometer 1015.7 mb
Air temperature 26.0 ° C
Visibility: greater than 10.8 NM
Dewpoint 21.8 ° C
Water temperature 27.6 ° C

Date/timePositionNaut miles runAvg speedWind from/ knotsBaromVisibWave heightAir tempDewpointWater temp
2019-May-18 23:00N 25°48' W 075°54'97 7.5 090 / 151015.710.8 26.021.827.6
2019-May-18 10:00N 25°54' W 077°42'7710.7 030 / 141015.210.8 25.022.228.1
2019-May-18 02:44N 26°17' W 079°04'310.2
2019-May-18 02:26N 26°17' W 079°07'410.3
2019-May-18 02:01N 26°16' W 079°12'510.6
2019-May-18 01:30N 26°13' W 079°17'510.5
2019-May-18 01:00N 26°10' W 079°22'510.6
2019-May-18 00:30N 26°07' W 079°27'511.1
2019-May-18 00:01N 26°04' W 079°32'510.3
2019-May-17 23:30N 26°01' W 079°37'713.3
2019-May-17 23:00N 25°58' W 079°43'714.8
2019-May-17 22:30N 25°53' W 079°50'714.4
2019-May-17 22:00N 25°49' W 079°56'3161.4
2019-May-17 22:00N 25°48' W 079°54'817.1 010 / 191015.010.8 26.021.828.8
2019-May-17 21:30N 25°47' W 080°03'4 8.4
2019-May-17 21:00N 25°46' W 080°08'3 6.8
2019-May-17 20:31N 25°47' W 080°11'1 1.4
2019-May-17 20:00N 25°47' W 080°10'0 0.0
2019-May-17 19:30N 25°47' W 080°10'0 0.0
2019-May-17 19:00N 25°47' W 080°10'0 0.0
2019-May-17 18:30N 25°47' W 080°10'0 0.0
2019-May-17 18:00N 25°47' W 080°10'0 0.0
2019-May-17 17:30N 25°47' W 080°10'0 0.0
2019-May-17 17:00N 25°47' W 080°10'0 0.0
2019-May-17 16:30N 25°47' W 080°10'0 0.0
2019-May-17 16:00N 25°47' W 080°10'0 0.0
2019-May-17 15:30N 25°47' W 080°10'0 0.0
2019-May-17 15:00N 25°47' W 080°10'0 0.0
2019-May-17 14:30N 25°47' W 080°10'0 0.0
2019-May-17 14:00N 25°47' W 080°10'0 0.0
2019-May-17 13:30N 25°47' W 080°10'0 0.0
2019-May-17 13:00N 25°47' W 080°10'0 0.0
2019-May-17 12:30N 25°47' W 080°10'0 0.0
2019-May-17 12:00N 25°47' W 080°10'0 0.0
2019-May-17 11:24N 25°47' W 080°10'0 0.0
2019-May-17 11:00N 25°47' W 080°10'0 0.3
2019-May-17 10:30N 25°47' W 080°10'4 8.2
2019-May-17 10:01N 25°46' W 080°06'510.3
2019-May-17 09:31N 25°45' W 080°00'611.1
2019-May-17 09:01N 25°41' W 079°55'713.1
2019-May-17 08:30N 25°35' W 079°53'816.3
2019-May-17 08:00N 25°27' W 079°52'815.9
2019-May-17 07:30N 25°19' W 079°51'16116.9
2019-May-16 22:00N 23°36' W 082°06'21117.6 010 / 221013.710.8 29.026.329.6
2019-May-16 10:00N 22°00' W 085°30'10718.7 100 / 171012.410.8 28.026.729.3
2019-May-16 04:17N 20°43' W 086°50'519.6
2019-May-16 04:00N 20°39' W 086°54'815.6
2019-May-16 03:30N 20°33' W 086°58'4 7.5
2019-May-16 02:58N 20°29' W 086°59'0 0.0
2019-May-16 02:28N 20°29' W 086°59'0 0.0
2019-May-16 01:58N 20°29' W 086°59'0 0.0
2019-May-16 01:28N 20°29' W 086°59'0 0.0
2019-May-16 00:58N 20°29' W 086°59'0 0.0
2019-May-16 00:28N 20°29' W 086°59'0 0.0
2019-May-15 23:58N 20°29' W 086°59'0 0.0
2019-May-15 23:28N 20°29' W 086°59'0 0.0
2019-May-15 22:58N 20°29' W 086°59'0 0.0
2019-May-15 22:28N 20°29' W 086°59'0 0.0
2019-May-15 21:58N 20°29' W 086°59'0 0.0
2019-May-15 21:28N 20°29' W 086°59'0 0.0
2019-May-15 20:58N 20°29' W 086°59'0 0.0
2019-May-15 20:28N 20°29' W 086°59'0 0.0
2019-May-15 19:58N 20°29' W 086°59'0 0.0
2019-May-15 19:28N 20°29' W 086°59'0 0.0
2019-May-15 18:58N 20°29' W 086°59'0 0.0
2019-May-15 18:28N 20°29' W 086°59'0 0.0
2019-May-15 17:58N 20°29' W 086°59'0 0.0
2019-May-15 17:28N 20°29' W 086°59'0 0.0
2019-May-15 16:58N 20°29' W 086°59'0 0.4
2019-May-15 16:30N 20°29' W 086°59'3 5.9
2019-May-15 16:00N 20°32' W 086°59'712.7
2019-May-15 15:27N 20°38' W 086°55'7416.7
2019-May-15 11:00N 21°18' W 085°48'23618.2 080 / 291011.410.8 27.025.729.1
2019-May-14 22:00N 23°54' W 082°36'168 7.8 340 / 181012.910.8 29.526.929.7
2019-May-14 00:22N 25°08' W 079°51'814.7
2019-May-13 23:50N 25°16' W 079°48'514.2
2019-May-13 23:27N 25°21' W 079°48'714.8
2019-May-13 23:00N 25°27' W 079°50'4223.4
2019-May-13 23:00N 25°24' W 079°48'1122.4 220 / 131013.110.8 28.026.728.9
2019-May-13 22:30N 25°34' W 079°53'713.9
2019-May-13 22:00N 25°40' W 079°56'714.6
2019-May-13 21:30N 25°46' W 080°02'612.4
2019-May-13 21:00N 25°46' W 080°08'2 2.8
2019-May-13 20:27N 25°47' W 080°10'0 0.0
2019-May-13 19:57N 25°47' W 080°10'0 0.0
2019-May-13 19:27N 25°47' W 080°10'0 0.0
2019-May-13 18:57N 25°47' W 080°10'0 0.0
2019-May-13 18:27N 25°47' W 080°10'0 0.0
2019-May-13 17:57N 25°47' W 080°10'0 0.0
2019-May-13 17:27N 25°47' W 080°10'0 0.0
2019-May-13 16:57N 25°47' W 080°10'0 0.0
2019-May-13 16:27N 25°47' W 080°10'0 0.0
2019-May-13 15:57N 25°47' W 080°10'0 0.0
2019-May-13 15:27N 25°47' W 080°10'0 0.0
2019-May-13 14:57N 25°47' W 080°10'0 0.0
2019-May-13 14:27N 25°47' W 080°10'0 0.0
2019-May-13 13:57N 25°47' W 080°10'0 0.0
2019-May-13 13:27N 25°47' W 080°10'0 0.0
2019-May-13 12:57N 25°47' W 080°10'0 0.0
2019-May-13 12:27N 25°47' W 080°10'0 0.0
2019-May-13 11:57N 25°47' W 080°10'0 0.0
2019-May-13 11:27N 25°47' W 080°10'0 0.0
2019-May-13 11:00N 25°47' W 080°10'1 1.8
2019-May-13 10:30N 25°47' W 080°11'3 6.2
2019-May-13 10:00N 25°46' W 080°08'612.6
2019-May-13 09:30N 25°47' W 080°01'510.5
2019-May-13 09:00N 25°50' W 079°56'510.0
2019-May-13 08:30N 25°54' W 079°52'713.4
2019-May-13 08:00N 25°57' W 079°45'714.9
2019-May-13 07:30N 25°59' W 079°38'815.2
2019-May-13 07:00N 26°02' W 079°30'815.5
2019-May-13 06:30N 26°06' W 079°22'815.9
2019-May-13 06:00N 26°09' W 079°14'8614.2
2019-May-13 00:00N 25°48' W 077°42'2424.2 150 / 151014.010.8 27.025.728.0
2019-May-12 23:00N 25°30' W 077°24'50 2.3 120 / 131013.410.8
2019-May-12 01:00N 25°42' W 076°30'25 8.2 080 / 151015.810.8 27.025.728.0
2019-May-11 22:00N 25°54' W 076°06'86 7.2 100 / 191015.1 30.026.028.1
2019-May-11 10:00N 25°54' W 077°42'86 9.9 090 / 101015.510.8 25.621.927.9
2019-May-11 01:22N 26°15' W 079°14'410.4
2019-May-11 01:00N 26°12' W 079°18'510.5
2019-May-11 00:30N 26°10' W 079°23'510.6
2019-May-11 00:00N 26°07' W 079°27'510.7
2019-May-10 23:30N 26°04' W 079°32'510.5
2019-May-10 23:00N 26°01' W 079°37'714.2
2019-May-10 22:31N 25°57' W 079°44'815.6
2019-May-10 22:01N 25°53' W 079°51'6353.0
2019-May-10 22:00N 25°48' W 079°48'1020.0 070 / 61015.110.8 29.026.329.0
2019-May-10 21:31N 25°49' W 079°59'612.8
2019-May-10 21:00N 25°46' W 080°05'5 9.3
2019-May-10 20:30N 25°47' W 080°10'0 0.2
2019-May-10 20:00N 25°47' W 080°10'0 0.0
2019-May-10 19:30N 25°47' W 080°10'0 0.0
2019-May-10 19:00N 25°47' W 080°10'0 0.0
2019-May-10 18:30N 25°47' W 080°10'0 0.0
2019-May-10 18:00N 25°47' W 080°10'0 0.0
2019-May-10 17:30N 25°47' W 080°10'0 0.0
2019-May-10 17:00N 25°47' W 080°10'0 0.0
2019-May-10 16:30N 25°47' W 080°10'0 0.0
2019-May-10 16:00N 25°47' W 080°10'0 0.0
2019-May-10 15:30N 25°47' W 080°10'0 0.0
2019-May-10 15:00N 25°47' W 080°10'0 0.0
2019-May-10 14:30N 25°47' W 080°10'0 0.0
2019-May-10 14:00N 25°47' W 080°10'0 0.0
2019-May-10 13:30N 25°47' W 080°10'0 0.0
2019-May-10 13:00N 25°47' W 080°10'0 0.0
2019-May-10 12:30N 25°47' W 080°10'0 0.0
2019-May-10 12:00N 25°47' W 080°10'0 0.0
2019-May-10 11:30N 25°47' W 080°10'0 0.0
2019-May-10 11:00N 25°47' W 080°10'0 0.3
2019-May-10 10:30N 25°47' W 080°10'4 8.5
2019-May-10 10:01N 25°46' W 080°05'510.7
2019-May-10 09:30N 25°44' W 079°60'5 9.6
2019-May-10 09:00N 25°42' W 079°55'510.1
2019-May-10 08:30N 25°37' W 079°54'713.1
2019-May-10 08:01N 25°30' W 079°53'816.2
2019-May-10 07:30N 25°22' W 079°52'816.1
2019-May-10 07:01N 25°14' W 079°51'35917.1
2019-May-09 10:00N 22°06' W 085°24'11519.0 120 / 151011.510.8 29.1
2019-May-09 03:57N 20°44' W 086°50'920.1
2019-May-09 03:30N 20°36' W 086°56'612.9
2019-May-09 03:00N 20°31' W 086°59'2 3.7
2019-May-09 02:30N 20°29' W 086°59'0 0.0
2019-May-09 02:00N 20°29' W 086°59'0 0.0
2019-May-09 01:30N 20°29' W 086°59'0 0.0
2019-May-09 00:54N 20°29' W 086°59'0 0.0
2019-May-09 00:30N 20°29' W 086°59'0 0.0
2019-May-09 00:00N 20°29' W 086°59'0 0.0
2019-May-08 23:30N 20°29' W 086°59'0 0.0
2019-May-08 23:00N 20°29' W 086°59'  
Track history (hours):
 
Tides and Currents Weather Stations Pressure Air Temp Water Temp Dewpoint Dewpoint Depression Visibility Wind Speed Wind Dir Waves Ship Positions

Carnival Victory

Operator: Carnival Cruise Lines

Last reported at 2019-May-18 23:00 UTC. Time now 2019-May-20 04:57 UTC.
Position N 25°48' W 075°54'.

Type: Passenger vessel. MMSI: 355263000.

Wind from 090 at 15 knots

Barometer 1015.7 mb
Air temperature 26.0 ° C
Visibility: greater than 10.8 NM
Dewpoint 21.8 ° C
Water temperature 27.6 ° C

Date/timePositionNaut miles runAvg speedWind from/ knotsBaromVisibWave heightAir tempDewpointWater temp
2019-May-18 23:00N 25°48' W 075°54'97 7.5 090 / 151015.710.8 26.021.827.6
2019-May-18 10:00N 25°54' W 077°42'7710.7 030 / 141015.210.8 25.022.228.1
2019-May-18 02:44N 26°17' W 079°04'310.2
2019-May-18 02:26N 26°17' W 079°07'410.3
2019-May-18 02:01N 26°16' W 079°12'510.6
2019-May-18 01:30N 26°13' W 079°17'510.5
2019-May-18 01:00N 26°10' W 079°22'510.6
2019-May-18 00:30N 26°07' W 079°27'511.1
2019-May-18 00:01N 26°04' W 079°32'510.3
2019-May-17 23:30N 26°01' W 079°37'713.3
2019-May-17 23:00N 25°58' W 079°43'714.8
2019-May-17 22:30N 25°53' W 079°50'714.4
2019-May-17 22:00N 25°49' W 079°56'3161.4
2019-May-17 22:00N 25°48' W 079°54'817.1 010 / 191015.010.8 26.021.828.8
2019-May-17 21:30N 25°47' W 080°03'4 8.4
2019-May-17 21:00N 25°46' W 080°08'3 6.8
2019-May-17 20:31N 25°47' W 080°11'1 1.4
2019-May-17 20:00N 25°47' W 080°10'0 0.0
2019-May-17 19:30N 25°47' W 080°10'0 0.0
2019-May-17 19:00N 25°47' W 080°10'0 0.0
2019-May-17 18:30N 25°47' W 080°10'0 0.0
2019-May-17 18:00N 25°47' W 080°10'0 0.0
2019-May-17 17:30N 25°47' W 080°10'0 0.0
2019-May-17 17:00N 25°47' W 080°10'0 0.0
2019-May-17 16:30N 25°47' W 080°10'0 0.0
2019-May-17 16:00N 25°47' W 080°10'0 0.0
2019-May-17 15:30N 25°47' W 080°10'0 0.0
2019-May-17 15:00N 25°47' W 080°10'0 0.0
2019-May-17 14:30N 25°47' W 080°10'0 0.0
2019-May-17 14:00N 25°47' W 080°10'0 0.0
2019-May-17 13:30N 25°47' W 080°10'0 0.0
2019-May-17 13:00N 25°47' W 080°10'0 0.0
2019-May-17 12:30N 25°47' W 080°10'0 0.0
2019-May-17 12:00N 25°47' W 080°10'0 0.0
2019-May-17 11:24N 25°47' W 080°10'0 0.0
2019-May-17 11:00N 25°47' W 080°10'0 0.3
2019-May-17 10:30N 25°47' W 080°10'4 8.2
2019-May-17 10:01N 25°46' W 080°06'510.3
2019-May-17 09:31N 25°45' W 080°00'611.1
2019-May-17 09:01N 25°41' W 079°55'713.1
2019-May-17 08:30N 25°35' W 079°53'816.3
2019-May-17 08:00N 25°27' W 079°52'815.9
2019-May-17 07:30N 25°19' W 079°51'16116.9
2019-May-16 22:00N 23°36' W 082°06'21117.6 010 / 221013.710.8 29.026.329.6
2019-May-16 10:00N 22°00' W 085°30'10718.7 100 / 171012.410.8 28.026.729.3
2019-May-16 04:17N 20°43' W 086°50'519.6
2019-May-16 04:00N 20°39' W 086°54'815.6
2019-May-16 03:30N 20°33' W 086°58'4 7.5
2019-May-16 02:58N 20°29' W 086°59'0 0.0
2019-May-16 02:28N 20°29' W 086°59'0 0.0
2019-May-16 01:58N 20°29' W 086°59'0 0.0
2019-May-16 01:28N 20°29' W 086°59'0 0.0
2019-May-16 00:58N 20°29' W 086°59'0 0.0
2019-May-16 00:28N 20°29' W 086°59'0 0.0
2019-May-15 23:58N 20°29' W 086°59'0 0.0
2019-May-15 23:28N 20°29' W 086°59'0 0.0
2019-May-15 22:58N 20°29' W 086°59'0 0.0
2019-May-15 22:28N 20°29' W 086°59'0 0.0
2019-May-15 21:58N 20°29' W 086°59'0 0.0
2019-May-15 21:28N 20°29' W 086°59'0 0.0
2019-May-15 20:58N 20°29' W 086°59'0 0.0
2019-May-15 20:28N 20°29' W 086°59'0 0.0
2019-May-15 19:58N 20°29' W 086°59'0 0.0
2019-May-15 19:28N 20°29' W 086°59'0 0.0
2019-May-15 18:58N 20°29' W 086°59'0 0.0
2019-May-15 18:28N 20°29' W 086°59'0 0.0
2019-May-15 17:58N 20°29' W 086°59'0 0.0
2019-May-15 17:28N 20°29' W 086°59'0 0.0
2019-May-15 16:58N 20°29' W 086°59'0 0.4
2019-May-15 16:30N 20°29' W 086°59'3 5.9
2019-May-15 16:00N 20°32' W 086°59'712.7
2019-May-15 15:27N 20°38' W 086°55'7416.7
2019-May-15 11:00N 21°18' W 085°48'23618.2 080 / 291011.410.8 27.025.729.1
2019-May-14 22:00N 23°54' W 082°36'168 7.8 340 / 181012.910.8 29.526.929.7
2019-May-14 00:22N 25°08' W 079°51'814.7
2019-May-13 23:50N 25°16' W 079°48'514.2
2019-May-13 23:27N 25°21' W 079°48'714.8
2019-May-13 23:00N 25°27' W 079°50'4223.4
2019-May-13 23:00N 25°24' W 079°48'1122.4 220 / 131013.110.8 28.026.728.9
2019-May-13 22:30N 25°34' W 079°53'713.9
2019-May-13 22:00N 25°40' W 079°56'714.6
2019-May-13 21:30N 25°46' W 080°02'612.4
2019-May-13 21:00N 25°46' W 080°08'2 2.8
2019-May-13 20:27N 25°47' W 080°10'0 0.0
2019-May-13 19:57N 25°47' W 080°10'0 0.0
2019-May-13 19:27N 25°47' W 080°10'0 0.0
2019-May-13 18:57N 25°47' W 080°10'0 0.0
2019-May-13 18:27N 25°47' W 080°10'0 0.0
2019-May-13 17:57N 25°47' W 080°10'0 0.0
2019-May-13 17:27N 25°47' W 080°10'0 0.0
2019-May-13 16:57N 25°47' W 080°10'0 0.0
2019-May-13 16:27N 25°47' W 080°10'0 0.0
2019-May-13 15:57N 25°47' W 080°10'0 0.0
2019-May-13 15:27N 25°47' W 080°10'0 0.0
2019-May-13 14:57N 25°47' W 080°10'0 0.0
2019-May-13 14:27N 25°47' W 080°10'0 0.0
2019-May-13 13:57N 25°47' W 080°10'0 0.0
2019-May-13 13:27N 25°47' W 080°10'0 0.0
2019-May-13 12:57N 25°47' W 080°10'0 0.0
2019-May-13 12:27N 25°47' W 080°10'0 0.0
2019-May-13 11:57N 25°47' W 080°10'0 0.0
2019-May-13 11:27N 25°47' W 080°10'0 0.0
2019-May-13 11:00N 25°47' W 080°10'1 1.8
2019-May-13 10:30N 25°47' W 080°11'3 6.2
2019-May-13 10:00N 25°46' W 080°08'612.6
2019-May-13 09:30N 25°47' W 080°01'510.5
2019-May-13 09:00N 25°50' W 079°56'510.0
2019-May-13 08:30N 25°54' W 079°52'713.4
2019-May-13 08:00N 25°57' W 079°45'714.9
2019-May-13 07:30N 25°59' W 079°38'815.2
2019-May-13 07:00N 26°02' W 079°30'815.5
2019-May-13 06:30N 26°06' W 079°22'815.9
2019-May-13 06:00N 26°09' W 079°14'8614.2
2019-May-13 00:00N 25°48' W 077°42'2424.2 150 / 151014.010.8 27.025.728.0
2019-May-12 23:00N 25°30' W 077°24'50 2.3 120 / 131013.410.8
2019-May-12 01:00N 25°42' W 076°30'25 8.2 080 / 151015.810.8 27.025.728.0
2019-May-11 22:00N 25°54' W 076°06'86 7.2 100 / 191015.1 30.026.028.1
2019-May-11 10:00N 25°54' W 077°42'86 9.9 090 / 101015.510.8 25.621.927.9
2019-May-11 01:22N 26°15' W 079°14'410.4
2019-May-11 01:00N 26°12' W 079°18'510.5
2019-May-11 00:30N 26°10' W 079°23'510.6
2019-May-11 00:00N 26°07' W 079°27'510.7
2019-May-10 23:30N 26°04' W 079°32'510.5
2019-May-10 23:00N 26°01' W 079°37'714.2
2019-May-10 22:31N 25°57' W 079°44'815.6
2019-May-10 22:01N 25°53' W 079°51'6353.0
2019-May-10 22:00N 25°48' W 079°48'1020.0 070 / 61015.110.8 29.026.329.0
2019-May-10 21:31N 25°49' W 079°59'612.8
2019-May-10 21:00N 25°46' W 080°05'5 9.3
2019-May-10 20:30N 25°47' W 080°10'0 0.2
2019-May-10 20:00N 25°47' W 080°10'0 0.0
2019-May-10 19:30N 25°47' W 080°10'0 0.0
2019-May-10 19:00N 25°47' W 080°10'0 0.0
2019-May-10 18:30N 25°47' W 080°10'0 0.0
2019-May-10 18:00N 25°47' W 080°10'0 0.0
2019-May-10 17:30N 25°47' W 080°10'0 0.0
2019-May-10 17:00N 25°47' W 080°10'0 0.0
2019-May-10 16:30N 25°47' W 080°10'0 0.0
2019-May-10 16:00N 25°47' W 080°10'0 0.0
2019-May-10 15:30N 25°47' W 080°10'0 0.0
2019-May-10 15:00N 25°47' W 080°10'0 0.0
2019-May-10 14:30N 25°47' W 080°10'0 0.0
2019-May-10 14:00N 25°47' W 080°10'0 0.0
2019-May-10 13:30N 25°47' W 080°10'0 0.0
2019-May-10 13:00N 25°47' W 080°10'0 0.0
2019-May-10 12:30N 25°47' W 080°10'0 0.0
2019-May-10 12:00N 25°47' W 080°10'0 0.0
2019-May-10 11:30N 25°47' W 080°10'0 0.0
2019-May-10 11:00N 25°47' W 080°10'0 0.3
2019-May-10 10:30N 25°47' W 080°10'4 8.5
2019-May-10 10:01N 25°46' W 080°05'510.7
2019-May-10 09:30N 25°44' W 079°60'5 9.6
2019-May-10 09:00N 25°42' W 079°55'510.1
2019-May-10 08:30N 25°37' W 079°54'713.1
2019-May-10 08:01N 25°30' W 079°53'816.2
2019-May-10 07:30N 25°22' W 079°52'816.1
2019-May-10 07:01N 25°14' W 079°51'35917.1
2019-May-09 10:00N 22°06' W 085°24'11519.0 120 / 151011.510.8 29.1
2019-May-09 03:57N 20°44' W 086°50'920.1
2019-May-09 03:30N 20°36' W 086°56'612.9
2019-May-09 03:00N 20°31' W 086°59'2 3.7
2019-May-09 02:30N 20°29' W 086°59'0 0.0
2019-May-09 02:00N 20°29' W 086°59'0 0.0
2019-May-09 01:30N 20°29' W 086°59'0 0.0
2019-May-09 00:54N 20°29' W 086°59'0 0.0
2019-May-09 00:30N 20°29' W 086°59'0 0.0
2019-May-09 00:00N 20°29' W 086°59'0 0.0
2019-May-08 23:30N 20°29' W 086°59'0 0.0
2019-May-08 23:00N 20°29' W 086°59'  

Dump ship's entire track history